Time;durP1;ratioP1;P1;durP2;ratioP2;P2;SDS_P1;SDS_P2;PMS_P1;PMS_P2;Temp;Humidity;BMP_temperature;BMP_pressure;BME280_temperature;BME280_humidity;BME280_pressure;Samples;Min_cycle;Max_cycle;Signal;HPM_P1;HPM_P2
2021/11/17 02:27:52;;;;;;;;;;;;;;;;;;5030689;28;19987;-78
2021/11/17 02:30:18;;;;;;;;;;;;;;;;;;5013504;28;19925;-82
2021/11/17 02:32:44;;;;;;;;;;;;;;;;;;5017931;28;20497;-80
2021/11/17 02:35:10;;;;;;;;;;;;;;;;;;5018697;28;19913;-80
2021/11/17 02:37:36;;;;;;;;;;;;;;;;;;5017411;28;20000;-81
2021/11/17 02:40:03;;;;;;;;;;;;;;;;;;5019750;28;19917;-81
2021/11/17 02:42:29;;;;;;;;;;;;;;;;;;5012626;28;19914;-78
2021/11/17 02:44:55;;;;;;;;;;;;;;;;;;5012698;28;19920;-82
2021/11/17 02:47:21;;;;;;;;;;;;;;;;;;5013223;28;19945;-79
2021/11/17 02:49:47;;;;;;;;;;;;;;;;;;5012592;28;20317;-80
2021/11/17 02:52:12;;;;;;;;;;;;;;;;;;5018984;28;19914;-82
2021/11/17 02:54:38;;;;;;;;;;;;;;;;;;5022424;28;20769;-78
2021/11/17 02:57:04;;;;;;;;;;;;;;;;;;5012512;28;20003;-79
2021/11/17 02:59:30;;;;;;;;;;;;;;;;;;5018987;28;19913;-76
2021/11/17 03:01:56;;;;;;;;;;;;;;;;;;5023028;28;19913;-82
2021/11/17 03:04:22;;;;;;;;;;;;;;;;;;5026296;28;19917;-83
2021/11/17 03:06:48;;;;;;;;;;;;;;;;;;5011395;28;20587;-82
2021/11/17 03:09:13;;;;;;;;;;;;;;;;;;5026481;28;19963;-83
2021/11/17 03:11:39;;;;;;;;;;;;;;;;;;5016338;28;19918;-79
2021/11/17 03:14:06;;;;;;;;;;;;;;;;;;5026585;28;19909;-86
2021/11/17 03:16:31;;;;;;;;;;;;;;;;;;5019634;28;19913;-83
2021/11/17 03:18:57;;;;;;;;;;;;;;;;;;5013580;28;19924;-80
2021/11/17 03:21:23;;;;;;;;;;;;;;;;;;5025263;28;20589;-79
2021/11/17 03:23:51;;;;;;;;;;;;;;;;;;5013747;28;19909;-79
2021/11/17 03:26:16;;;;;;;;;;;;;;;;;;5016160;28;19967;-80
2021/11/17 03:28:42;;;;;;;;;;;;;;;;;;5029158;28;19917;-79
2021/11/17 03:31:08;;;;;;;;;;;;;;;;;;5022585;28;19921;-82
2021/11/17 03:33:34;;;;;;;;;;;;;;;;;;5018130;28;20589;-81
2021/11/17 03:36:00;;;;;;;;;;;;;;;;;;5028274;28;19924;-83
2021/11/17 03:38:26;;;;;;;;;;;;;;;;;;5021478;28;19920;-80
2021/11/17 03:40:52;;;;;;;;;;;;;;;;;;5015268;28;19910;-80
2021/11/17 03:43:18;;;;;;;;;;;;;;;;;;5024355;28;20377;-81
2021/11/17 03:45:43;;;;;;;;;;;;;;;;;;5024746;28;19910;-82
2021/11/17 03:48:09;;;;;;;;;;;;;;;;;;5019974;28;19983;-79
2021/11/17 03:50:35;;;;;;;;;;;;;;;;;;5018882;28;19916;-88
2021/11/17 03:53:01;;;;;;;;;;;;;;;;;;5027261;28;20263;-77
2021/11/17 03:55:27;;;;;;;;;;;;;;;;;;5016322;28;19909;-82
2021/11/17 03:57:53;;;;;;;;;;;;;;;;;;5013939;28;20442;-83
2021/11/17 04:00:19;;;;;;;;;;;;;;;;;;5014670;28;19913;-78
2021/11/17 04:02:45;;;;;;;;;;;;;;;;;;5022968;28;19921;-81
2021/11/17 04:05:10;;;;;;;;;;;;;;;;;;5024274;28;19920;-78
2021/11/17 04:07:36;;;;;;;;;;;;;;;;;;5022799;28;19913;-78
2021/11/17 04:10:02;;;;;;;;;;;;;;;;;;5023471;28;19909;-83
2021/11/17 04:12:28;;;;;;;;;;;;;;;;;;5019764;28;19929;-79
2021/11/17 04:14:54;;;;;;;;;;;;;;;;;;5020291;28;20262;-81
2021/11/17 04:17:20;;;;;;;;;;;;;;;;;;5031474;28;19924;-79
2021/11/17 04:19:46;;;;;;;;;;;;;;;;;;5015910;28;20374;-81
2021/11/17 04:22:12;;;;;;;;;;;;;;;;;;5022452;28;19918;-81
2021/11/17 04:24:37;;;;;;;;;;;;;;;;;;5014906;28;19920;-84
2021/11/17 04:27:03;;;;;;;;;;;;;;;;;;5014165;28;20472;-84
2021/11/17 04:29:29;;;;;;;;;;;;;;;;;;5016612;28;19925;-83
2021/11/17 04:31:58;;;;;;;;;;;;;;;;;;5022517;28;20162;-79
2021/11/17 04:34:24;;;;;;;;;;;;;;;;;;5025460;28;19913;-81
2021/11/17 04:36:50;;;;;;;;;;;;;;;;;;5030588;28;19913;-84
2021/11/17 04:39:16;;;;;;;;;;;;;;;;;;5016401;28;20330;-80
2021/11/17 04:41:42;;;;;;;;;;;;;;;;;;5017116;28;19931;-85
2021/11/17 04:44:08;;;;;;;;;;;;;;;;;;5013953;28;19964;-81
2021/11/17 04:46:34;;;;;;;;;;;;;;;;;;5016019;28;19959;-83
2021/11/17 04:49:00;;;;;;;;;;;;;;;;;;5026745;28;19914;-85
2021/11/17 04:51:25;;;;;;;;;;;;;;;;;;5032632;28;19913;-80
2021/11/17 04:53:51;;;;;;;;;;;;;;;;;;5030124;28;19968;-85
2021/11/17 04:56:17;;;;;;;;;;;;;;;;;;5029612;28;20654;-81
2021/11/17 04:58:43;;;;;;;;;;;;;;;;;;5018457;28;19992;-82
2021/11/17 05:01:09;;;;;;;;;;;;;;;;;;5014406;28;19910;-79
2021/11/17 05:03:36;;;;;;;;;;;;;;;;;;5028501;28;19913;-79
2021/11/17 05:06:01;;;;;;;;;;;;;;;;;;5021214;28;19915;-83
2021/11/17 05:08:27;;;;;;;;;;;;;;;;;;5023658;28;19917;-82
2021/11/17 05:10:53;;;;;;;;;;;;;;;;;;5030236;28;19925;-79
2021/11/17 05:13:19;;;;;;;;;;;;;;;;;;5030505;28;19963;-81
2021/11/17 05:15:46;;;;;;;;;;;;;;;;;;5025946;28;19956;-81
2021/11/17 05:18:12;;;;;;;;;;;;;;;;;;5014221;28;19913;-83
2021/11/17 05:20:37;;;;;;;;;;;;;;;;;;5029666;28;19914;-81
2021/11/17 05:23:03;;;;;;;;;;;;;;;;;;5017734;28;20470;-85
2021/11/17 05:25:29;;;;;;;;;;;;;;;;;;5021115;28;19932;-79
2021/11/17 05:27:55;;;;;;;;;;;;;;;;;;5011813;28;19929;-78
2021/11/17 05:30:22;;;;;;;;;;;;;;;;;;5023713;28;19921;-82
2021/11/17 05:32:47;;;;;;;;;;;;;;;;;;5022696;28;19916;-80
2021/11/17 05:35:13;;;;;;;;;;;;;;;;;;5027930;28;19963;-81
2021/11/17 05:37:39;;;;;;;;;;;;;;;;;;5028916;28;19914;-78
2021/11/17 05:40:06;;;;;;;;;;;;;;;;;;5031035;28;20605;-82
2021/11/17 05:42:32;;;;;;;;;;;;;;;;;;5022116;28;19913;-80
2021/11/17 05:44:58;;;;;;;;;;;;;;;;;;5016825;28;19921;-78
2021/11/17 05:47:24;;;;;;;;;;;;;;;;;;5013766;28;19909;-82
2021/11/17 05:49:50;;;;;;;;;;;;;;;;;;5019299;28;19957;-78
2021/11/17 05:52:19;;;;;;;;;;;;;;;;;;5011482;28;20408;-78
2021/11/17 05:54:45;;;;;;;;;;;;;;;;;;5025296;28;19917;-80
2021/11/17 05:57:11;;;;;;;;;;;;;;;;;;5028904;28;20401;-79
2021/11/17 05:59:36;;;;;;;;;;;;;;;;;;5021699;28;19920;-81
2021/11/17 06:02:02;;;;;;;;;;;;;;;;;;5029638;28;19913;-79
2021/11/17 06:04:28;;;;;;;;;;;;;;;;;;5014470;28;22075;-80
2021/11/17 06:06:54;;;;;;;;;;;;;;;;;;5021847;28;19917;-80
2021/11/17 06:09:23;;;;;;;;;;;;;;;;;;5020165;28;19913;-85
2021/11/17 06:11:49;;;;;;;;;;;;;;;;;;5019933;28;20005;-82
2021/11/17 06:14:16;;;;;;;;;;;;;;;;;;5019990;28;20012;-81
2021/11/17 06:16:42;;;;;;;;;;;;;;;;;;5017105;28;19909;-77
2021/11/17 06:19:08;;;;;;;;;;;;;;;;;;5017399;28;19940;-80
2021/11/17 06:21:34;;;;;;;;;;;;;;;;;;5016319;28;19913;-78
2021/11/17 06:24:01;;;;;;;;;;;;;;;;;;5023027;28;19913;-80
2021/11/17 06:26:27;;;;;;;;;;;;;;;;;;5032775;28;19952;-81
2021/11/17 06:28:53;;;;;;;;;;;;;;;;;;5025310;28;19952;-80
2021/11/17 06:31:18;;;;;;;;;;;;;;;;;;5013664;28;19917;-78
2021/11/17 06:33:44;;;;;;;;;;;;;;;;;;5015419;28;20278;-79
2021/11/17 06:36:10;;;;;;;;;;;;;;;;;;5011675;28;19913;-79
2021/11/17 06:38:36;;;;;;;;;;;;;;;;;;5024312;28;20605;-80
2021/11/17 06:41:02;;;;;;;;;;;;;;;;;;5014237;28;19909;-80
2021/11/17 06:43:28;;;;;;;;;;;;;;;;;;5012217;28;19979;-82
2021/11/17 06:45:54;;;;;;;;;;;;;;;;;;5013214;28;19910;-79
2021/11/17 06:48:20;;;;;;;;;;;;;;;;;;5023024;28;19921;-80
2021/11/17 06:50:46;;;;;;;;;;;;;;;;;;5014635;28;19924;-83
2021/11/17 06:53:11;;;;;;;;;;;;;;;;;;5011920;28;19921;-79
2021/11/17 06:55:37;;;;;;;;;;;;;;;;;;5011424;28;19913;-79
2021/11/17 06:58:03;;;;;;;;;;;;;;;;;;5024019;28;19913;-78
2021/11/17 07:00:29;;;;;;;;;;;;;;;;;;5018733;28;20378;-79
2021/11/17 07:02:55;;;;;;;;;;;;;;;;;;5030461;28;20043;-85
2021/11/17 07:05:21;;;;;;;;;;;;;;;;;;5018178;28;19917;-76
2021/11/17 07:07:47;;;;;;;;;;;;;;;;;;5000491;28;20120;-78
2021/11/17 07:10:13;;;;;;;;;;;;;;;;;;4995004;28;20021;-85
2021/11/17 07:12:39;;;;;;;;;;;;;;;;;;4984802;28;19919;-78
2021/11/17 07:15:05;;;;;;;;;;;;;;;;;;4986937;28;20306;-81
2021/11/17 07:17:31;;;;;;;;;;;;;;;;;;4997855;28;19953;-78
2021/11/17 07:19:57;;;;;;;;;;;;;;;;;;4989477;28;20011;-82
2021/11/17 07:22:24;;;;;;;;;;;;;;;;;;4993961;28;19914;-78
2021/11/17 07:24:50;;;;;;;;;;;;;;;;;;5008595;28;19921;-77
2021/11/17 07:27:22;;;;;;;;;;;;;;;;;;4989806;28;19917;-79
2021/11/17 07:29:48;;;;;;;;;;;;;;;;;;4975098;28;20309;-84
2021/11/17 07:32:14;;;;;;;;;;;;;;;;;;4977744;28;20012;-78
2021/11/17 07:34:40;;;;;;;;;;;;;;;;;;4974513;28;20590;-80
2021/11/17 07:37:05;;;;;;;;;;;;;;;;;;4985811;28;19918;-82
2021/11/17 07:39:31;;;;;;;;;;;;;;;;;;5003755;28;19963;-80
2021/11/17 07:41:57;;;;;;;;;;;;;;;;;;5008203;28;20152;-77
2021/11/17 07:44:23;;;;;;;;;;;;;;;;;;5019711;28;19917;-82
2021/11/17 07:46:49;;;;;;;;;;;;;;;;;;5025448;28;20551;-79
2021/11/17 07:49:15;;;;;;;;;;;;;;;;;;5021232;28;19913;-80
2021/11/17 07:51:41;;;;;;;;;;;;;;;;;;5014718;28;19925;-81
2021/11/17 07:54:07;;;;;;;;;;;;;;;;;;5006715;28;19910;-79
2021/11/17 07:56:33;;;;;;;;;;;;;;;;;;5014771;28;19948;-81
2021/11/17 07:58:58;;;;;;;;;;;;;;;;;;5010873;28;19914;-78
2021/11/17 08:01:24;;;;;;;;;;;;;;;;;;5012453;28;20328;-81
2021/11/17 08:03:50;;;;;;;;;;;;;;;;;;5009348;28;19909;-84
2021/11/17 08:06:17;;;;;;;;;;;;;;;;;;5008141;28;19917;-78
2021/11/17 08:08:42;;;;;;;;;;;;;;;;;;5007590;28;19917;-80
2021/11/17 08:11:08;;;;;;;;;;;;;;;;;;5017550;28;20277;-82
2021/11/17 08:13:37;;;;;;;;;;;;;;;;;;5017936;28;19962;-79
2021/11/17 08:16:03;;;;;;;;;;;;;;;;;;5028368;28;19951;-78
2021/11/17 08:18:29;;;;;;;;;;;;;;;;;;5033863;28;19909;-77
2021/11/17 08:20:55;;;;;;;;;;;;;;;;;;5034194;28;19958;-75
2021/11/17 08:23:21;;;;;;;;;;;;;;;;;;5040256;28;20393;-77
2021/11/17 08:25:47;;;;;;;;;;;;;;;;;;5031734;28;19914;-78
2021/11/17 08:28:13;;;;;;;;;;;;;;;;;;5026314;28;19916;-78
2021/11/17 08:30:39;;;;;;;;;;;;;;;;;;5033642;28;19944;-77
2021/11/17 08:33:05;;;;;;;;;;;;;;;;;;5025084;28;19918;-78
2021/11/17 08:35:31;;;;;;;;;;;;;;;;;;5021231;28;19909;-79
2021/11/17 08:37:57;;;;;;;;;;;;;;;;;;5015395;28;19910;-80
2021/11/17 08:40:22;;;;;;;;;;;;;;;;;;5021105;28;19937;-75
2021/11/17 08:42:49;;;;;;;;;;;;;;;;;;5031994;28;19913;-76
2021/11/17 08:45:15;;;;;;;;;;;;;;;;;;5026386;28;19997;-77
2021/11/17 08:47:41;;;;;;;;;;;;;;;;;;5019549;28;19913;-79
2021/11/17 08:50:07;;;;;;;;;;;;;;;;;;5013623;28;19914;-78
2021/11/17 08:52:33;;;;;;;;;;;;;;;;;;5026646;28;20288;-79
2021/11/17 08:54:59;;;;;;;;;;;;;;;;;;5044524;28;19913;-80
2021/11/17 08:57:28;;;;;;;;;;;;;;;;;;5025472;28;20274;-77
2021/11/17 08:59:54;;;;;;;;;;;;;;;;;;5024240;28;19913;-81
2021/11/17 09:02:20;;;;;;;;;;;;;;;;;;5032803;28;19921;-77
2021/11/17 09:04:46;;;;;;;;;;;;;;;;;;5022811;28;19914;-76
2021/11/17 09:07:12;;;;;;;;;;;;;;;;;;5021716;28;19913;-79
2021/11/17 09:09:37;;;;;;;;;;;;;;;;;;5026536;28;19951;-77
2021/11/17 09:12:03;;;;;;;;;;;;;;;;;;5029485;28;20312;-77
2021/11/17 09:14:29;;;;;;;;;;;;;;;;;;5045259;28;20015;-78
2021/11/17 09:16:55;;;;;;;;;;;;;;;;;;5037276;28;19916;-77
2021/11/17 09:19:22;;;;;;;;;;;;;;;;;;5044279;28;19909;-77
2021/11/17 09:21:48;;;;;;;;;;;;;;;;;;5036339;28;20285;-76
2021/11/17 09:24:16;;;;;;;;;;;;;;;;;;5030452;28;19913;-76
2021/11/17 09:26:43;;;;;;;;;;;;;;;;;;5025733;28;19909;-78
2021/11/17 09:29:11;;;;;;;;;;;;;;;;;;5034891;28;19924;-82
2021/11/17 09:31:37;;;;;;;;;;;;;;;;;;5034227;28;19909;-75
2021/11/17 09:34:03;;;;;;;;;;;;;;;;;;5036591;28;19919;-77
2021/11/17 09:36:30;;;;;;;;;;;;;;;;;;5042785;28;19944;-76
2021/11/17 09:38:56;;;;;;;;;;;;;;;;;;5035891;28;19948;-76
2021/11/17 09:41:22;;;;;;;;;;;;;;;;;;5047216;28;19963;-76
2021/11/17 09:43:48;;;;;;;;;;;;;;;;;;5041326;28;19964;-76
2021/11/17 09:46:14;;;;;;;;;;;;;;;;;;5038300;28;19912;-77
2021/11/17 09:48:40;;;;;;;;;;;;;;;;;;5026215;28;19920;-77
2021/11/17 09:51:06;;;;;;;;;;;;;;;;;;5030001;28;19914;-77
2021/11/17 09:53:32;;;;;;;;;;;;;;;;;;5025609;28;19917;-78
2021/11/17 09:56:00;;;;;;;;;;;;;;;;;;5023855;28;19918;-76
2021/11/17 09:58:26;;;;;;;;;;;;;;;;;;5027024;28;19920;-77
2021/11/17 10:00:52;;;;;;;;;;;;;;;;;;5026886;28;19913;-76
2021/11/17 10:03:18;;;;;;;;;;;;;;;;;;5029901;28;19944;-77
2021/11/17 10:06:23;;;;;;;;;;;;;;;;;;5027865;28;19958;-77
2021/11/17 10:13:58;;;;;;;;;;;;;;;;;;5042617;28;19913;-76
2021/11/17 10:16:25;;;;;;;;;;;;;;;;;;5038016;28;19956;-76
2021/11/17 10:18:51;;;;;;;;;;;;;;;;;;5035751;28;20003;-76
2021/11/17 10:21:17;;;;;;;;;;;;;;;;;;5024775;28;19967;-77
2021/11/17 10:23:43;;;;;;;;;;;;;;;;;;5031050;28;19992;-77
2021/11/17 10:26:09;;;;;;;;;;;;;;;;;;5031673;28;20381;-79
2021/11/17 10:28:35;;;;;;;;;;;;;;;;;;5032953;28;20541;-76
2021/11/17 10:31:01;;;;;;;;;;;;;;;;;;5037540;28;20009;-77
2021/11/17 10:33:45;;;;;;;;;;;;;;;;;;5036124;28;20051;-77
2021/11/17 10:36:13;;;;;;;;;;;;;;;;;;5040271;28;20423;-76
2021/11/17 10:38:39;;;;;;;;;;;;;;;;;;5042178;28;19959;-76
2021/11/17 10:41:05;;;;;;;;;;;;;;;;;;5026891;28;19913;-77
2021/11/17 10:43:30;;;;;;;;;;;;;;;;;;5031662;28;19913;-76
2021/11/17 10:45:56;;;;;;;;;;;;;;;;;;5022772;28;19909;-76
2021/11/17 10:48:22;;;;;;;;;;;;;;;;;;5036495;28;19971;-77
2021/11/17 10:50:48;;;;;;;;;;;;;;;;;;5034162;28;19916;-77
2021/11/17 10:53:16;;;;;;;;;;;;;;;;;;5030574;28;20562;-76
2021/11/17 10:55:41;;;;;;;;;;;;;;;;;;5037996;28;19909;-76
2021/11/17 10:58:07;;;;;;;;;;;;;;;;;;5042381;28;19968;-76
2021/11/17 11:00:33;;;;;;;;;;;;;;;;;;5038538;28;19909;-76
2021/11/17 11:02:59;;;;;;;;;;;;;;;;;;5039241;28;19916;-76
2021/11/17 11:05:25;;;;;;;;;;;;;;;;;;5031228;28;19921;-77
2021/11/17 11:07:51;;;;;;;;;;;;;;;;;;5046877;28;20321;-77
2021/11/17 11:10:17;;;;;;;;;;;;;;;;;;5035225;28;19939;-77
2021/11/17 11:12:43;;;;;;;;;;;;;;;;;;5043506;28;19916;-77
2021/11/17 11:15:09;;;;;;;;;;;;;;;;;;5035025;28;19976;-76
2021/11/17 11:17:35;;;;;;;;;;;;;;;;;;5030788;28;19916;-77
2021/11/17 11:20:01;;;;;;;;;;;;;;;;;;5034183;28;20468;-76
2021/11/17 11:22:27;;;;;;;;;;;;;;;;;;5027752;28;20377;-77
2021/11/17 11:24:53;;;;;;;;;;;;;;;;;;5032895;28;19909;-76
2021/11/17 11:27:18;;;;;;;;;;;;;;;;;;5038354;28;19909;-77
2021/11/17 11:29:44;;;;;;;;;;;;;;;;;;5021031;28;19971;-76
2021/11/17 11:32:10;;;;;;;;;;;;;;;;;;5033386;28;20270;-78
2021/11/17 11:34:37;;;;;;;;;;;;;;;;;;5042201;28;19916;-76
2021/11/17 11:37:03;;;;;;;;;;;;;;;;;;5028605;28;19955;-78
2021/11/17 11:39:29;;;;;;;;;;;;;;;;;;5032574;28;19916;-78
2021/11/17 11:41:55;;;;;;;;;;;;;;;;;;5036861;28;19913;-78
2021/11/17 11:44:23;;;;;;;;;;;;;;;;;;5029381;28;19913;-77
2021/11/17 11:46:50;;;;;;;;;;;;;;;;;;5031129;28;19918;-78
2021/11/17 11:49:16;;;;;;;;;;;;;;;;;;5030754;28;19921;-78
2021/11/17 11:51:42;;;;;;;;;;;;;;;;;;5032247;28;20497;-79
2021/11/17 11:54:08;;;;;;;;;;;;;;;;;;5027537;28;20008;-76
2021/11/17 11:56:34;;;;;;;;;;;;;;;;;;5036473;28;20668;-77
2021/11/17 11:58:59;;;;;;;;;;;;;;;;;;5032690;28;19964;-77
2021/11/17 12:01:25;;;;;;;;;;;;;;;;;;5030874;28;20409;-78
2021/11/17 12:03:51;;;;;;;;;;;;;;;;;;5027215;28;19917;-77
2021/11/17 12:06:17;;;;;;;;;;;;;;;;;;5034732;28;20330;-77
2021/11/17 12:08:44;;;;;;;;;;;;;;;;;;5025828;28;20893;-77
2021/11/17 12:11:11;;;;;;;;;;;;;;;;;;5020664;28;19913;-76
2021/11/17 12:13:38;;;;;;;;;;;;;;;;;;5027659;28;19970;-78
2021/11/17 12:16:04;;;;;;;;;;;;;;;;;;5043502;28;19909;-77
2021/11/17 12:18:31;;;;;;;;;;;;;;;;;;5030539;28;19958;-77
2021/11/17 12:20:57;;;;;;;;;;;;;;;;;;5045067;28;19955;-77
2021/11/17 12:23:23;;;;;;;;;;;;;;;;;;5019858;28;19913;-77
2021/11/17 12:25:49;;;;;;;;;;;;;;;;;;5046253;28;20047;-77
2021/11/17 12:28:15;;;;;;;;;;;;;;;;;;5040794;28;19922;-77
2021/11/17 12:30:44;;;;;;;;;;;;;;;;;;5017284;28;19937;-77
2021/11/17 12:33:11;;;;;;;;;;;;;;;;;;5050929;28;19924;-77
2021/11/17 12:35:37;;;;;;;;;;;;;;;;;;5036163;28;19909;-77
2021/11/17 12:38:03;;;;;;;;;;;;;;;;;;5035088;28;19915;-76
2021/11/17 12:40:29;;;;;;;;;;;;;;;;;;5028798;28;19963;-76
2021/11/17 12:42:55;;;;;;;;;;;;;;;;;;5017874;28;20404;-78
2021/11/17 12:45:21;;;;;;;;;;;;;;;;;;5023587;28;19952;-76
2021/11/17 12:47:47;;;;;;;;;;;;;;;;;;5026988;28;19914;-77
2021/11/17 12:50:13;;;;;;;;;;;;;;;;;;5044082;28;19913;-78
2021/11/17 12:52:38;;;;;;;;;;;;;;;;;;5034057;28;19925;-79
2021/11/17 12:55:04;;;;;;;;;;;;;;;;;;5045751;28;19945;-78
2021/11/17 12:57:30;;;;;;;;;;;;;;;;;;5022575;28;19949;-80
2021/11/17 12:59:56;;;;;;;;;;;;;;;;;;5033616;28;20015;-77
2021/11/17 13:02:22;;;;;;;;;;;;;;;;;;5036482;28;20357;-79
2021/11/17 13:04:48;;;;;;;;;;;;;;;;;;5040123;28;19946;-80
2021/11/17 13:07:14;;;;;;;;;;;;;;;;;;5026384;28;20442;-79
2021/11/17 13:09:40;;;;;;;;;;;;;;;;;;5040660;28;20285;-79
2021/11/17 13:12:06;;;;;;;;;;;;;;;;;;5039913;28;19921;-80
2021/11/17 13:14:32;;;;;;;;;;;;;;;;;;5039355;28;20011;-79
2021/11/17 13:16:58;;;;;;;;;;;;;;;;;;5038055;28;20019;-77
2021/11/17 13:19:24;;;;;;;;;;;;;;;;;;5038195;28;19916;-78
2021/11/17 13:21:50;;;;;;;;;;;;;;;;;;5046990;28;19924;-78
2021/11/17 13:24:16;;;;;;;;;;;;;;;;;;5037077;28;19913;-80
2021/11/17 13:26:42;;;;;;;;;;;;;;;;;;5034824;28;20615;-79
2021/11/17 13:29:08;;;;;;;;;;;;;;;;;;5024177;28;19917;-79
2021/11/17 13:31:34;;;;;;;;;;;;;;;;;;5040892;28;19912;-78
2021/11/17 13:33:59;;;;;;;;;;;;;;;;;;5042122;28;19963;-79
2021/11/17 13:36:25;;;;;;;;;;;;;;;;;;5041129;28;19909;-81
2021/11/17 13:38:51;;;;;;;;;;;;;;;;;;5041882;28;19909;-77
2021/11/17 13:41:17;;;;;;;;;;;;;;;;;;5037944;28;20277;-79
2021/11/17 13:43:43;;;;;;;;;;;;;;;;;;5045939;28;19940;-77
2021/11/17 13:46:09;;;;;;;;;;;;;;;;;;5032836;28;19999;-79
2021/11/17 13:48:35;;;;;;;;;;;;;;;;;;5033170;28;20019;-79
2021/11/17 13:51:01;;;;;;;;;;;;;;;;;;5038145;28;19909;-79
2021/11/17 13:53:27;;;;;;;;;;;;;;;;;;5035134;28;19920;-77
2021/11/17 13:55:53;;;;;;;;;;;;;;;;;;5046057;28;20016;-79
2021/11/17 13:58:19;;;;;;;;;;;;;;;;;;5031306;28;19936;-78
2021/11/17 14:00:44;;;;;;;;;;;;;;;;;;5041962;28;19956;-78
2021/11/17 14:03:10;;;;;;;;;;;;;;;;;;5039619;28;20297;-80
2021/11/17 14:05:39;;;;;;;;;;;;;;;;;;5038896;28;19991;-78
2021/11/17 14:08:05;;;;;;;;;;;;;;;;;;5035198;28;19917;-79
2021/11/17 14:10:33;;;;;;;;;;;;;;;;;;5030883;28;19914;-79
2021/11/17 14:12:59;;;;;;;;;;;;;;;;;;5025678;28;19964;-80
2021/11/17 14:15:24;;;;;;;;;;;;;;;;;;5040312;28;19943;-78
2021/11/17 14:17:50;;;;;;;;;;;;;;;;;;5046658;28;19940;-78
2021/11/17 14:20:16;;;;;;;;;;;;;;;;;;5029315;28;19917;-78
2021/11/17 14:22:42;;;;;;;;;;;;;;;;;;5026104;28;19913;-78
2021/11/17 14:25:12;;;;;;;;;;;;;;;;;;5022756;28;20309;-79
2021/11/17 14:27:38;;;;;;;;;;;;;;;;;;5038846;28;19921;-79
2021/11/17 14:30:04;;;;;;;;;;;;;;;;;;5038689;28;19932;-80
2021/11/17 14:32:30;;;;;;;;;;;;;;;;;;5039286;28;20280;-79
2021/11/17 14:34:56;;;;;;;;;;;;;;;;;;5025232;28;20287;-80
2021/11/17 14:37:22;;;;;;;;;;;;;;;;;;5037615;28;19909;-78
2021/11/17 14:39:48;;;;;;;;;;;;;;;;;;5034798;28;19945;-81
2021/11/17 14:42:14;;;;;;;;;;;;;;;;;;5035689;28;19920;-81
2021/11/17 14:44:40;;;;;;;;;;;;;;;;;;5043428;28;20558;-80
2021/11/17 14:47:07;;;;;;;;;;;;;;;;;;5039992;28;20304;-79
2021/11/17 14:49:33;;;;;;;;;;;;;;;;;;5048114;28;19909;-78
2021/11/17 14:51:59;;;;;;;;;;;;;;;;;;5038742;28;19915;-78
2021/11/17 14:54:25;;;;;;;;;;;;;;;;;;5034369;28;19916;-79
2021/11/17 14:56:51;;;;;;;;;;;;;;;;;;5042653;28;19909;-79
2021/11/17 14:59:17;;;;;;;;;;;;;;;;;;5047550;28;20311;-79
2021/11/17 15:01:43;;;;;;;;;;;;;;;;;;5032966;28;19935;-80
2021/11/17 15:04:08;;;;;;;;;;;;;;;;;;5033706;28;19917;-80
2021/11/17 15:09:19;;;;;;;;;;;;;;;;;;5041951;28;20884;-80
2021/11/17 15:11:45;;;;;;;;;;;;;;;;;;5035837;28;19912;-78
2021/11/17 15:14:11;;;;;;;;;;;;;;;;;;5033246;28;19917;-79
2021/11/17 15:16:40;;;;;;;;;;;;;;;;;;5030351;28;20561;-79
2021/11/17 15:19:06;;;;;;;;;;;;;;;;;;5034215;28;19913;-79
2021/11/17 15:21:32;;;;;;;;;;;;;;;;;;5035830;28;19936;-81
2021/11/17 15:23:58;;;;;;;;;;;;;;;;;;5037080;28;19918;-79
2021/11/17 15:26:24;;;;;;;;;;;;;;;;;;5042165;28;19917;-78
2021/11/17 15:28:53;;;;;;;;;;;;;;;;;;5041354;28;19916;-78
2021/11/17 15:31:19;;;;;;;;;;;;;;;;;;5044302;28;19956;-78
2021/11/17 15:33:45;;;;;;;;;;;;;;;;;;5041181;28;20273;-78
2021/11/17 15:36:11;;;;;;;;;;;;;;;;;;5039019;28;19917;-79
2021/11/17 15:38:37;;;;;;;;;;;;;;;;;;5043576;28;19915;-78
2021/11/17 15:41:03;;;;;;;;;;;;;;;;;;5048378;28;19995;-79
2021/11/17 15:43:28;;;;;;;;;;;;;;;;;;5052619;28;20280;-78
2021/11/17 15:45:54;;;;;;;;;;;;;;;;;;5049831;28;19909;-78
2021/11/17 15:48:21;;;;;;;;;;;;;;;;;;5040499;28;19916;-79
2021/11/17 15:50:48;;;;;;;;;;;;;;;;;;5031645;28;19913;-78
2021/11/17 15:53:13;;;;;;;;;;;;;;;;;;5041319;28;19924;-78
2021/11/17 15:55:39;;;;;;;;;;;;;;;;;;5023919;28;19913;-79
2021/11/17 15:58:05;;;;;;;;;;;;;;;;;;5016275;28;19945;-79
2021/11/17 16:00:32;;;;;;;;;;;;;;;;;;5018813;28;19924;-80
2021/11/17 16:02:58;;;;;;;;;;;;;;;;;;5016110;28;19921;-79
2021/11/17 16:05:24;;;;;;;;;;;;;;;;;;5021540;28;19913;-79
2021/11/17 16:07:50;;;;;;;;;;;;;;;;;;5020624;28;19913;-79
2021/11/17 16:10:15;;;;;;;;;;;;;;;;;;5024387;28;19925;-78
2021/11/17 16:12:42;;;;;;;;;;;;;;;;;;5014784;28;20633;-79
2021/11/17 16:15:08;;;;;;;;;;;;;;;;;;5019477;28;20016;-79
2021/11/17 16:17:37;;;;;;;;;;;;;;;;;;5017588;28;20484;-79
2021/11/17 16:20:03;;;;;;;;;;;;;;;;;;5012161;28;19956;-78
2021/11/17 16:22:32;;;;;;;;;;;;;;;;;;5013580;28;19921;-79
2021/11/17 16:27:43;;;;;;;;;;;;;;;;;;5016654;28;19924;-80
2021/11/17 16:30:11;;;;;;;;;;;;;;;;;;5030231;28;19925;-79
2021/11/17 16:32:37;;;;;;;;;;;;;;;;;;5030753;28;19920;-78
2021/11/17 16:35:03;;;;;;;;;;;;;;;;;;5024221;28;19921;-78
2021/11/17 16:37:29;;;;;;;;;;;;;;;;;;5026326;28;20328;-79
2021/11/17 16:39:55;;;;;;;;;;;;;;;;;;5028829;28;19909;-79
2021/11/17 16:42:22;;;;;;;;;;;;;;;;;;5026632;28;20023;-79
2021/11/17 16:44:49;;;;;;;;;;;;;;;;;;5009481;28;19913;-79
2021/11/17 16:47:15;;;;;;;;;;;;;;;;;;5010434;28;20326;-79
2021/11/17 16:49:43;;;;;;;;;;;;;;;;;;5020485;28;19917;-79
2021/11/17 16:52:08;;;;;;;;;;;;;;;;;;5010850;28;19921;-78
2021/11/17 16:54:34;;;;;;;;;;;;;;;;;;5008397;28;20385;-79
2021/11/17 16:57:00;;;;;;;;;;;;;;;;;;5008128;28;19913;-79
2021/11/17 16:59:26;;;;;;;;;;;;;;;;;;5015159;28;19913;-78
2021/11/17 17:01:52;;;;;;;;;;;;;;;;;;5009800;28;19956;-79
2021/11/17 17:04:18;;;;;;;;;;;;;;;;;;5011668;28;20267;-79
2021/11/17 17:06:46;;;;;;;;;;;;;;;;;;5020599;28;19921;-79
2021/11/17 17:09:12;;;;;;;;;;;;;;;;;;5017850;28;19956;-79
2021/11/17 17:11:38;;;;;;;;;;;;;;;;;;5025810;28;19925;-78
2021/11/17 17:14:04;;;;;;;;;;;;;;;;;;5027972;28;19917;-78
2021/11/17 17:16:30;;;;;;;;;;;;;;;;;;5022191;28;19909;-79
2021/11/17 17:18:56;;;;;;;;;;;;;;;;;;5022116;28;19967;-79
2021/11/17 17:21:21;;;;;;;;;;;;;;;;;;5028083;28;19913;-79
2021/11/17 17:23:47;;;;;;;;;;;;;;;;;;5011515;28;19913;-79
2021/11/17 17:26:14;;;;;;;;;;;;;;;;;;5009434;28;19913;-79
2021/11/17 17:28:40;;;;;;;;;;;;;;;;;;5020678;28;19917;-78
2021/11/17 17:31:05;;;;;;;;;;;;;;;;;;5027205;28;19928;-79
2021/11/17 17:33:31;;;;;;;;;;;;;;;;;;5015045;28;20024;-78
2021/11/17 17:35:57;;;;;;;;;;;;;;;;;;5009403;28;20148;-79
2021/11/17 17:38:23;;;;;;;;;;;;;;;;;;5007871;28;19916;-79
2021/11/17 17:40:50;;;;;;;;;;;;;;;;;;5007831;28;19909;-79
2021/11/17 17:43:16;;;;;;;;;;;;;;;;;;5010838;28;20443;-79
2021/11/17 17:45:42;;;;;;;;;;;;;;;;;;5019563;28;19923;-78
2021/11/17 17:48:08;;;;;;;;;;;;;;;;;;5007582;28;19967;-79
2021/11/17 17:50:35;;;;;;;;;;;;;;;;;;5014038;28;20027;-78
2021/11/17 17:53:00;;;;;;;;;;;;;;;;;;5021070;28;19921;-79
2021/11/17 17:55:26;;;;;;;;;;;;;;;;;;5012946;28;19913;-79
2021/11/17 17:57:52;;;;;;;;;;;;;;;;;;5006343;28;19953;-79
2021/11/17 18:00:18;;;;;;;;;;;;;;;;;;5023782;28;19924;-78
2021/11/17 18:02:44;;;;;;;;;;;;;;;;;;5021916;28;19917;-79
2021/11/17 18:05:10;;;;;;;;;;;;;;;;;;5024450;28;20380;-79
2021/11/17 18:07:36;;;;;;;;;;;;;;;;;;5018950;28;19953;-79
2021/11/17 18:10:02;;;;;;;;;;;;;;;;;;5016159;28;19940;-79
2021/11/17 18:12:28;;;;;;;;;;;;;;;;;;5010003;28;20327;-79
2021/11/17 18:14:54;;;;;;;;;;;;;;;;;;5006509;28;19914;-78
2021/11/17 18:17:20;;;;;;;;;;;;;;;;;;5011162;28;20000;-78
2021/11/17 18:19:46;;;;;;;;;;;;;;;;;;5006280;28;19913;-79
2021/11/17 18:22:12;;;;;;;;;;;;;;;;;;5010855;28;19913;-79
2021/11/17 18:24:37;;;;;;;;;;;;;;;;;;5020046;28;19913;-79
2021/11/17 18:27:03;;;;;;;;;;;;;;;;;;5005854;28;20028;-79
2021/11/17 18:29:29;;;;;;;;;;;;;;;;;;5012386;28;19976;-78
2021/11/17 18:31:55;;;;;;;;;;;;;;;;;;5007515;28;19925;-78
2021/11/17 18:34:21;;;;;;;;;;;;;;;;;;5006528;28;19920;-78
2021/11/17 18:36:48;;;;;;;;;;;;;;;;;;5014904;28;19913;-78
2021/11/17 18:39:14;;;;;;;;;;;;;;;;;;5025402;28;19913;-79
2021/11/17 18:41:39;;;;;;;;;;;;;;;;;;5018207;28;20328;-79
2021/11/17 18:44:05;;;;;;;;;;;;;;;;;;5007978;28;19917;-78
2021/11/17 18:46:31;;;;;;;;;;;;;;;;;;5018727;28;19964;-79
2021/11/17 18:48:57;;;;;;;;;;;;;;;;;;5020760;28;19983;-79
2021/11/17 18:51:23;;;;;;;;;;;;;;;;;;5022155;28;20426;-78
2021/11/17 18:53:49;;;;;;;;;;;;;;;;;;5020832;28;19924;-78
2021/11/17 18:56:15;;;;;;;;;;;;;;;;;;5026002;28;19909;-79
2021/11/17 18:58:41;;;;;;;;;;;;;;;;;;5013150;28;19910;-78
2021/11/17 19:01:07;;;;;;;;;;;;;;;;;;5012270;28;19913;-77
2021/11/17 19:03:33;;;;;;;;;;;;;;;;;;5009843;28;20350;-78
2021/11/17 19:05:59;;;;;;;;;;;;;;;;;;5011640;28;20317;-78
2021/11/17 19:08:25;;;;;;;;;;;;;;;;;;5020805;28;19995;-79
2021/11/17 19:10:53;;;;;;;;;;;;;;;;;;5031335;28;19967;-79
2021/11/17 19:13:19;;;;;;;;;;;;;;;;;;5025452;28;19940;-80
2021/11/17 19:15:46;;;;;;;;;;;;;;;;;;5015479;28;19913;-80